createdAt,value
2018-09-18T00:00:24.828Z,0.00
2018-09-18T00:01:24.781Z,0.00
2018-09-18T00:02:24.861Z,0.00
2018-09-18T00:03:24.694Z,0.00
2018-09-18T00:04:24.979Z,0.00
2018-09-18T00:05:24.662Z,0.00
2018-09-18T00:06:24.646Z,0.00
2018-09-18T00:07:24.679Z,0.00
2018-09-18T00:08:24.646Z,0.00
2018-09-18T00:09:24.601Z,0.00
2018-09-18T00:10:24.632Z,0.00
2018-09-18T00:11:24.564Z,0.00
2018-09-18T00:12:24.543Z,0.00
2018-09-18T00:13:24.528Z,0.00
2018-09-18T00:14:24.513Z,0.00
2018-09-18T00:15:24.687Z,0.00
2018-09-18T00:17:24.613Z,0.00
2018-09-18T00:21:24.756Z,0.00
2018-09-18T00:22:24.380Z,0.00
2018-09-18T00:23:24.411Z,0.00
2018-09-18T00:24:24.417Z,0.00
2018-09-18T00:25:25.965Z,0.00
2018-09-18T00:26:24.316Z,0.00
2018-09-18T00:27:24.293Z,0.00
2018-09-18T00:28:24.275Z,0.00
2018-09-18T00:29:24.309Z,0.00
2018-09-18T00:30:24.244Z,0.00
2018-09-18T00:31:24.595Z,0.00
2018-09-18T00:32:24.285Z,0.00
2018-09-18T00:33:24.284Z,0.00
2018-09-18T00:34:24.249Z,0.00
2018-09-18T00:35:24.291Z,0.00
2018-09-18T00:36:24.214Z,0.00
2018-09-18T00:37:24.130Z,0.00
2018-09-18T00:39:24.140Z,0.00
2018-09-18T00:40:24.074Z,0.00
2018-09-18T00:41:24.157Z,0.00
2018-09-18T00:42:24.039Z,0.00
2018-09-18T00:43:24.037Z,0.00
2018-09-18T00:44:24.008Z,0.00
2018-09-18T00:46:23.973Z,0.00
2018-09-18T00:47:24.079Z,0.00
2018-09-18T00:48:23.988Z,0.00
2018-09-18T00:49:23.944Z,0.00
2018-09-18T00:50:23.905Z,0.00
2018-09-18T00:51:23.890Z,0.00
2018-09-18T00:52:23.946Z,0.00
2018-09-18T00:53:23.907Z,0.00
2018-09-18T00:54:23.853Z,0.00
2018-09-18T00:55:23.922Z,0.00
2018-09-18T00:56:23.802Z,0.00
2018-09-18T00:57:23.786Z,0.00
2018-09-18T00:58:23.771Z,0.00
2018-09-18T00:59:23.903Z,0.00
2018-09-18T01:01:23.770Z,0.00
2018-09-18T01:02:23.706Z,0.00
2018-09-18T01:03:23.685Z,0.00
2018-09-18T01:04:24.042Z,0.00
2018-09-18T01:05:23.829Z,0.00
2018-09-18T01:06:23.706Z,0.00
2018-09-18T01:07:23.616Z,0.00
2018-09-18T01:08:23.600Z,0.00
2018-09-18T01:09:23.654Z,0.00
2018-09-18T01:10:23.638Z,0.00
2018-09-18T01:11:23.685Z,0.00
2018-09-18T01:12:23.531Z,0.00
2018-09-18T01:13:23.714Z,0.00
2018-09-18T01:14:23.571Z,0.00
2018-09-18T01:15:23.557Z,0.00
2018-09-18T01:16:23.462Z,0.00
2018-09-18T01:17:23.572Z,0.00
2018-09-18T01:18:23.504Z,0.00
2018-09-18T01:19:23.480Z,0.00
2018-09-18T01:20:23.394Z,0.00
2018-09-18T01:21:23.426Z,0.00
2018-09-18T01:22:23.364Z,0.00
2018-09-18T01:23:23.395Z,0.00
2018-09-18T01:24:23.331Z,0.00
2018-09-18T01:25:23.327Z,0.00
2018-09-18T01:26:23.294Z,0.00
2018-09-18T01:27:23.627Z,0.00
2018-09-18T01:28:23.261Z,0.00
2018-09-18T01:29:23.398Z,0.00
2018-09-18T01:30:23.304Z,0.00
2018-09-18T01:31:23.208Z,0.00
2018-09-18T01:32:23.267Z,0.00
2018-09-18T01:33:23.247Z,0.00
2018-09-18T01:34:23.157Z,0.00
2018-09-18T01:35:23.191Z,0.00
2018-09-18T01:36:23.196Z,0.00
2018-09-18T01:37:23.176Z,0.00
2018-09-18T01:38:23.161Z,0.00
2018-09-18T01:39:23.072Z,0.00
2018-09-18T01:40:23.127Z,0.00
2018-09-18T01:41:23.089Z,0.00
2018-09-18T01:42:23.097Z,0.00
2018-09-18T01:43:23.010Z,0.00
2018-09-18T01:44:23.061Z,0.00
2018-09-18T01:45:23.120Z,0.00
2018-09-18T01:46:22.960Z,0.00
2018-09-18T01:47:23.057Z,0.00
2018-09-18T01:48:22.918Z,0.00
2018-09-18T01:49:22.901Z,0.00
2018-09-18T01:50:24.155Z,0.00
2018-09-18T01:51:22.865Z,0.00
2018-09-18T01:52:22.921Z,0.00
2018-09-18T01:53:22.953Z,0.00
2018-09-18T01:54:22.815Z,0.00
2018-09-18T01:55:22.798Z,0.00
2018-09-18T01:56:22.853Z,0.00
2018-09-18T01:57:22.838Z,0.00
2018-09-18T01:58:22.821Z,0.00
2018-09-18T01:59:22.783Z,0.00
2018-09-18T02:01:22.696Z,0.00
2018-09-18T02:02:22.730Z,0.00
2018-09-18T02:03:22.735Z,0.00
2018-09-18T02:04:22.922Z,0.00
2018-09-18T02:05:22.751Z,0.00
2018-09-18T02:06:22.696Z,0.00
2018-09-18T02:07:22.593Z,0.00
2018-09-18T02:08:22.577Z,0.00
2018-09-18T02:09:22.621Z,0.00
2018-09-18T02:10:22.875Z,0.00
2018-09-18T02:11:22.650Z,0.00
2018-09-18T02:12:22.506Z,0.00
2018-09-18T02:13:22.496Z,0.00
2018-09-18T02:14:22.547Z,0.00
2018-09-18T02:15:22.651Z,0.00
2018-09-18T02:16:22.536Z,0.00
2018-09-18T02:17:22.660Z,0.00
2018-09-18T02:18:22.538Z,0.00
2018-09-18T02:20:22.682Z,0.00
2018-09-18T02:21:22.417Z,0.00
2018-09-18T02:22:22.337Z,0.00
2018-09-18T02:23:22.384Z,0.00
2018-09-18T02:24:22.358Z,0.00
2018-09-18T02:25:22.284Z,0.00
2018-09-18T02:26:22.341Z,0.00
2018-09-18T02:27:22.320Z,0.00
2018-09-18T02:28:22.403Z,0.00
2018-09-18T02:29:22.314Z,0.00
2018-09-18T02:30:22.273Z,0.00
2018-09-18T02:31:22.259Z,0.00
2018-09-18T02:32:22.248Z,0.00
2018-09-18T02:33:22.144Z,0.00
2018-09-18T02:34:22.128Z,0.00
2018-09-18T02:35:22.160Z,0.00
2018-09-18T02:36:22.102Z,0.00
2018-09-18T02:37:22.076Z,0.00
2018-09-18T02:38:22.057Z,0.00
2018-09-18T02:39:22.042Z,0.00
2018-09-18T02:40:22.028Z,0.00
2018-09-18T02:41:22.129Z,0.00
2018-09-18T02:42:22.164Z,0.00
2018-09-18T02:43:21.974Z,0.00
2018-09-18T02:44:22.025Z,0.00
2018-09-18T02:45:22.009Z,0.00
2018-09-18T02:46:22.003Z,0.00
2018-09-18T02:47:21.953Z,0.00
2018-09-18T02:48:21.884Z,0.00
2018-09-18T02:49:21.867Z,0.00
2018-09-18T02:50:21.851Z,0.00
2018-09-18T02:51:21.985Z,0.00
2018-09-18T02:52:21.868Z,0.00
2018-09-18T02:53:22.151Z,0.00
2018-09-18T02:54:21.783Z,0.00
2018-09-18T02:55:21.821Z,0.00
2018-09-18T02:57:22.078Z,0.00
2018-09-18T02:58:21.738Z,0.00
2018-09-18T02:59:21.845Z,0.00
2018-09-18T03:00:21.684Z,0.00
2018-09-18T03:01:21.670Z,0.00
2018-09-18T03:02:21.708Z,0.00
2018-09-18T03:03:21.643Z,0.00
2018-09-18T03:04:21.666Z,0.00
2018-09-18T03:05:21.774Z,0.00
2018-09-18T03:06:21.756Z,0.00
2018-09-18T03:07:21.620Z,0.00
2018-09-18T03:08:21.599Z,0.00
2018-09-18T03:09:21.530Z,0.00
2018-09-18T03:10:21.516Z,0.00
2018-09-18T03:11:21.701Z,0.00
2018-09-18T03:12:21.554Z,0.00
2018-09-18T03:13:21.540Z,0.00
2018-09-18T03:14:21.787Z,0.00
2018-09-18T03:15:21.629Z,0.00
2018-09-18T03:16:21.403Z,0.00
2018-09-18T03:17:21.552Z,0.00
2018-09-18T03:18:21.376Z,0.00
2018-09-18T03:19:21.434Z,0.00
2018-09-18T03:20:21.426Z,0.00
2018-09-18T03:22:21.681Z,0.00
2018-09-18T03:23:21.409Z,0.00
2018-09-18T03:30:21.642Z,0.00
2018-09-18T03:31:21.315Z,0.00
2018-09-18T03:33:21.160Z,0.00
2018-09-18T03:34:21.480Z,0.00
2018-09-18T03:35:21.186Z,0.00
2018-09-18T03:36:21.115Z,0.00
2018-09-18T03:37:21.043Z,0.00
2018-09-18T03:38:21.028Z,0.00
2018-09-18T03:39:21.023Z,0.00
2018-09-18T03:40:20.986Z,0.00
2018-09-18T03:41:20.975Z,0.00
2018-09-18T03:42:21.001Z,0.00
2018-09-18T03:43:20.998Z,0.00
2018-09-18T03:44:20.930Z,0.00
2018-09-18T03:45:21.066Z,0.00
2018-09-18T03:46:21.041Z,0.00
2018-09-18T03:47:20.961Z,0.00
2018-09-18T03:48:21.185Z,0.00
2018-09-18T03:49:20.889Z,0.00
2018-09-18T03:50:20.873Z,0.00
2018-09-18T03:51:20.831Z,0.00
2018-09-18T03:52:20.826Z,0.00
2018-09-18T03:53:20.966Z,0.00
2018-09-18T03:54:20.945Z,0.00
2018-09-18T03:55:20.945Z,0.00
2018-09-18T03:56:20.866Z,0.00
2018-09-18T03:57:20.750Z,0.00
2018-09-18T03:58:20.725Z,0.00
2018-09-18T03:59:20.675Z,0.00
2018-09-18T04:00:20.692Z,0.00
2018-09-18T04:01:20.687Z,0.00
2018-09-18T04:02:20.735Z,0.00
2018-09-18T04:03:20.645Z,0.00
2018-09-18T04:04:20.640Z,0.00
2018-09-18T04:07:21.353Z,0.00
2018-09-18T04:08:20.565Z,0.00
2018-09-18T04:09:20.554Z,0.00
2018-09-18T04:10:20.530Z,0.00
2018-09-18T04:11:20.715Z,0.00
2018-09-18T04:12:20.443Z,0.00
2018-09-18T04:13:20.475Z,0.00
2018-09-18T04:14:20.649Z,0.00
2018-09-18T04:15:20.550Z,0.00
2018-09-18T04:16:20.475Z,0.00
2018-09-18T04:17:20.467Z,0.00
2018-09-18T04:18:20.631Z,0.00
2018-09-18T04:19:20.516Z,0.00
2018-09-18T04:20:20.540Z,0.00
2018-09-18T04:21:20.430Z,0.00
2018-09-18T04:22:20.591Z,0.00
2018-09-18T04:23:20.370Z,0.00
2018-09-18T04:24:20.908Z,0.00
2018-09-18T04:25:20.606Z,0.00
2018-09-18T04:26:20.366Z,0.00
2018-09-18T04:27:20.399Z,0.00
2018-09-18T04:28:20.225Z,0.00
2018-09-18T04:29:20.367Z,0.00
2018-09-18T04:30:20.285Z,0.00
2018-09-18T04:31:20.250Z,0.00
2018-09-18T04:32:20.151Z,4.00
2018-09-18T04:33:20.086Z,4.00
2018-09-18T04:34:20.156Z,4.00
2018-09-18T04:35:20.043Z,4.00
2018-09-18T04:36:20.328Z,4.00
2018-09-18T04:37:20.182Z,4.00
2018-09-18T04:38:21.117Z,4.00
2018-09-18T04:40:20.087Z,8.00
2018-09-18T04:41:20.038Z,12.00
2018-09-18T04:42:20.120Z,12.00
2018-09-18T04:43:20.056Z,12.00
2018-09-18T04:44:20.281Z,12.00
2018-09-18T04:45:19.917Z,16.00
2018-09-18T04:46:19.906Z,20.00
2018-09-18T04:47:19.833Z,20.00
2018-09-18T04:48:19.920Z,24.00
2018-09-18T04:49:19.866Z,28.00
2018-09-18T04:50:19.798Z,32.00
2018-09-18T04:51:19.799Z,36.00
2018-09-18T04:52:19.823Z,36.00
2018-09-18T04:53:19.748Z,40.00
2018-09-18T04:54:20.013Z,48.00
2018-09-18T04:56:19.679Z,60.00
2018-09-18T04:57:20.058Z,64.00
2018-09-18T04:59:19.845Z,80.00
2018-09-18T05:00:20.260Z,84.00
2018-09-18T05:01:20.141Z,92.00
2018-09-18T05:02:19.834Z,104.00
2018-09-18T05:03:19.931Z,112.00
2018-09-18T05:04:19.786Z,124.00
2018-09-18T05:05:19.602Z,136.00
2018-09-18T05:07:19.861Z,172.00
2018-09-18T05:08:19.529Z,184.00
2018-09-18T05:09:19.696Z,204.00
2018-09-18T05:10:19.617Z,224.00
2018-09-18T05:11:19.891Z,240.00
2018-09-18T05:13:19.730Z,276.00
2018-09-18T05:14:19.840Z,292.00
2018-09-18T05:15:19.437Z,304.00
2018-09-18T05:16:19.453Z,320.00
2018-09-18T05:17:19.380Z,332.00
2018-09-18T05:18:19.366Z,340.00
2018-09-18T05:19:19.421Z,352.00
2018-09-18T05:20:19.610Z,360.00
2018-09-18T05:21:19.247Z,372.00
2018-09-18T05:22:19.263Z,384.00
2018-09-18T05:23:19.281Z,396.00
2018-09-18T05:24:19.247Z,412.00
2018-09-18T05:25:19.268Z,420.00
2018-09-18T05:26:19.638Z,436.00
2018-09-18T05:27:19.221Z,452.00
2018-09-18T05:28:19.182Z,468.00
2018-09-18T05:29:19.157Z,484.00
2018-09-18T05:30:19.142Z,496.00
2018-09-18T05:31:20.697Z,512.00
2018-09-18T05:32:19.396Z,528.00
2018-09-18T05:33:19.408Z,544.00
2018-09-18T05:34:19.769Z,560.00
2018-09-18T05:35:18.995Z,576.00
2018-09-18T05:36:19.042Z,592.00
2018-09-18T05:37:19.492Z,608.00
2018-09-18T05:38:19.395Z,628.00
2018-09-18T05:39:18.967Z,640.00
2018-09-18T05:40:19.161Z,656.00
2018-09-18T05:42:19.231Z,684.00
2018-09-18T05:44:19.509Z,716.00
2018-09-18T05:45:19.240Z,732.00
2018-09-18T05:46:18.827Z,748.00
2018-09-18T05:50:19.094Z,808.00
2018-09-18T05:51:18.821Z,812.00
2018-09-18T05:52:19.678Z,824.00
2018-09-18T05:53:18.752Z,836.00
2018-09-18T05:54:18.684Z,848.00
2018-09-18T05:55:18.791Z,848.00
2018-09-18T05:56:18.991Z,860.00
2018-09-18T05:57:18.764Z,872.00
2018-09-18T05:58:18.652Z,888.00
2018-09-18T05:59:18.753Z,900.00
2018-09-18T06:00:18.714Z,908.00
2018-09-18T06:01:18.721Z,916.00
2018-09-18T06:02:19.088Z,924.00
2018-09-18T06:03:18.587Z,936.00
2018-09-18T06:04:18.551Z,952.00
2018-09-18T06:05:19.075Z,968.00
2018-09-18T06:06:18.525Z,984.00
2018-09-18T06:07:18.925Z,1000.00
2018-09-18T06:08:18.876Z,1024.00
2018-09-18T06:09:19.199Z,1056.00
2018-09-18T06:10:20.513Z,1072.00
2018-09-18T06:11:18.909Z,1100.00
2018-09-18T06:12:18.436Z,1124.00
2018-09-18T06:13:18.454Z,1152.00
2018-09-18T06:17:18.333Z,1220.00
2018-09-18T06:18:18.279Z,1228.00
2018-09-18T06:20:18.335Z,1252.00
2018-09-18T06:22:18.584Z,1276.00
2018-09-18T06:23:18.195Z,1288.00
2018-09-18T06:24:18.181Z,1292.00
2018-09-18T06:25:18.186Z,1288.00
2018-09-18T06:26:18.309Z,1280.00
2018-09-18T06:27:18.134Z,1276.00
2018-09-18T06:28:18.467Z,1276.00
2018-09-18T06:30:18.240Z,1252.00
2018-09-18T06:31:18.126Z,1244.00
2018-09-18T06:32:18.357Z,1240.00
2018-09-18T06:33:18.039Z,1240.00
2018-09-18T06:34:18.383Z,1244.00
2018-09-18T06:35:18.062Z,1264.00
2018-09-18T06:36:18.052Z,1268.00
2018-09-18T06:37:17.988Z,1268.00
2018-09-18T06:38:18.028Z,1332.00
2018-09-18T06:39:18.049Z,1280.00
2018-09-18T06:40:18.287Z,1292.00
2018-09-18T06:41:17.981Z,1292.00
2018-09-18T06:42:18.055Z,1292.00
2018-09-18T06:43:17.985Z,1300.00
2018-09-18T06:44:17.971Z,1308.00
2018-09-18T06:45:18.017Z,1324.00
2018-09-18T06:47:17.840Z,1336.00
2018-09-18T06:48:17.844Z,1344.00
2018-09-18T06:49:17.864Z,1360.00
2018-09-18T06:50:18.048Z,1340.00
2018-09-18T06:51:17.833Z,1328.00
2018-09-18T06:52:18.118Z,1328.00
2018-09-18T06:53:17.750Z,1332.00
2018-09-18T06:54:17.823Z,1384.00
2018-09-18T06:55:17.778Z,1392.00
2018-09-18T06:56:17.895Z,1388.00
2018-09-18T06:57:17.744Z,1408.00
2018-09-18T06:58:18.163Z,1380.00
2018-09-18T06:59:17.775Z,1372.00
2018-09-18T07:00:17.759Z,1372.00
2018-09-18T07:01:17.691Z,1384.00
2018-09-18T07:02:17.821Z,1376.00
2018-09-18T07:04:17.953Z,1356.00
2018-09-18T07:05:17.597Z,1392.00
2018-09-18T07:06:17.575Z,1360.00
2018-09-18T07:07:17.590Z,1368.00
2018-09-18T07:08:17.843Z,1384.00
2018-09-18T07:09:17.534Z,1396.00
2018-09-18T07:10:17.888Z,1432.00
2018-09-18T07:11:17.498Z,1436.00
2018-09-18T07:13:17.473Z,1480.00
2018-09-18T07:14:17.513Z,1484.00
2018-09-18T07:15:17.461Z,1480.00
2018-09-18T07:16:17.789Z,1496.00
2018-09-18T07:17:17.430Z,1532.00
2018-09-18T07:18:17.415Z,1616.00
2018-09-18T07:19:17.408Z,1628.00
2018-09-18T07:20:17.439Z,1628.00
2018-09-18T07:21:17.383Z,1660.00
2018-09-18T07:23:17.398Z,1668.00
2018-09-18T07:24:18.229Z,1684.00
2018-09-18T07:25:17.328Z,1700.00
2018-09-18T07:26:17.376Z,1704.00
2018-09-18T07:27:17.373Z,1808.00
2018-09-18T07:28:17.639Z,1728.00
2018-09-18T07:29:17.302Z,1772.00
2018-09-18T07:30:17.342Z,1788.00
2018-09-18T07:31:17.332Z,1816.00
2018-09-18T07:32:17.335Z,1808.00
2018-09-18T07:34:17.696Z,1868.00
2018-09-18T07:35:17.323Z,1864.00
2018-09-18T07:36:17.250Z,1868.00
2018-09-18T07:37:17.231Z,1892.00
2018-09-18T07:38:17.310Z,1928.00
2018-09-18T07:39:17.233Z,1916.00
2018-09-18T07:40:18.406Z,1896.00
2018-09-18T07:41:17.180Z,1956.00
2018-09-18T07:42:18.262Z,1980.00
2018-09-18T07:43:17.191Z,1996.00
2018-09-18T07:44:17.541Z,1972.00
2018-09-18T07:45:17.440Z,2144.00
2018-09-18T07:46:17.415Z,2096.00
2018-09-18T07:47:17.241Z,2128.00
2018-09-18T07:48:17.132Z,2104.00
2018-09-18T07:49:17.176Z,2100.00
2018-09-18T07:50:17.703Z,2088.00
2018-09-18T07:51:17.088Z,2092.00
2018-09-18T07:52:17.413Z,2100.00
2018-09-18T07:53:17.041Z,2116.00
2018-09-18T07:54:16.970Z,2104.00
2018-09-18T07:55:17.086Z,2148.00
2018-09-18T07:56:17.108Z,2168.00
2018-09-18T07:57:16.979Z,2272.00
2018-09-18T07:58:17.283Z,2148.00
2018-09-18T07:59:17.034Z,2200.00
2018-09-18T08:01:16.933Z,2300.00
2018-09-18T08:02:17.088Z,2284.00
2018-09-18T08:03:17.021Z,2572.00
2018-09-18T08:04:17.241Z,2224.00
2018-09-18T08:05:16.856Z,2320.00
2018-09-18T08:06:16.910Z,2272.00
2018-09-18T08:07:16.885Z,2264.00
2018-09-18T08:08:16.921Z,2260.00
2018-09-18T08:10:17.213Z,2332.00
2018-09-18T08:11:16.848Z,2364.00
2018-09-18T08:12:16.781Z,2360.00
2018-09-18T08:13:16.824Z,2332.00
2018-09-18T08:14:16.988Z,2440.00
2018-09-18T08:15:16.855Z,2368.00
2018-09-18T08:16:17.130Z,2580.00
2018-09-18T08:17:16.789Z,2408.00
2018-09-18T08:18:16.835Z,2580.00
2018-09-18T08:19:16.847Z,2420.00
2018-09-18T08:20:16.755Z,2324.00
2018-09-18T08:21:16.913Z,2376.00
2018-09-18T08:22:17.185Z,2332.00
2018-09-18T08:23:16.981Z,2196.00
2018-09-18T08:24:16.658Z,2532.00
2018-09-18T08:25:16.794Z,2264.00
2018-09-18T08:26:16.818Z,2312.00
2018-09-18T08:27:16.672Z,2352.00
2018-09-18T08:28:16.969Z,2440.00
2018-09-18T08:29:16.716Z,2480.00
2018-09-18T08:30:16.601Z,2576.00
2018-09-18T08:31:16.670Z,2680.00
2018-09-18T08:32:16.969Z,2556.00
2018-09-18T08:33:16.579Z,2572.00
2018-09-18T08:34:16.903Z,2412.00
2018-09-18T08:35:16.689Z,2488.00
2018-09-18T08:36:16.626Z,2556.00
2018-09-18T08:37:16.628Z,2604.00
2018-09-18T08:38:16.570Z,2936.00
2018-09-18T08:39:16.531Z,2816.00
2018-09-18T08:40:17.769Z,2604.00
2018-09-18T08:41:16.513Z,2796.00
2018-09-18T08:42:16.638Z,2776.00
2018-09-18T08:43:16.842Z,2808.00
2018-09-18T08:44:16.667Z,2912.00
2018-09-18T08:45:16.507Z,2796.00
2018-09-18T08:46:16.887Z,2844.00
2018-09-18T08:47:16.594Z,2932.00
2018-09-18T08:48:16.574Z,3108.00
2018-09-18T08:49:16.449Z,2492.00
2018-09-18T08:50:16.536Z,3000.00
2018-09-18T08:51:16.456Z,3352.00
2018-09-18T08:52:16.787Z,3080.00
2018-09-18T08:53:16.547Z,2892.00
2018-09-18T08:54:16.927Z,3312.00
2018-09-18T08:55:16.412Z,2996.00
2018-09-18T08:56:16.553Z,2976.00
2018-09-18T08:57:16.902Z,3224.00
2018-09-18T08:58:16.779Z,3136.00
2018-09-18T08:59:16.320Z,3240.00
2018-09-18T09:00:16.304Z,3324.00
2018-09-18T09:01:16.351Z,3124.00
2018-09-18T09:02:17.097Z,3224.00
2018-09-18T09:03:16.593Z,3468.00
2018-09-18T09:04:18.611Z,3416.00
2018-09-18T09:05:16.535Z,3472.00
2018-09-18T09:06:16.387Z,3576.00
2018-09-18T09:07:16.705Z,3648.00
2018-09-18T09:09:16.444Z,3988.00
2018-09-18T09:10:16.654Z,3680.00
2018-09-18T09:11:16.330Z,3840.00
2018-09-18T09:12:16.296Z,3660.00
2018-09-18T09:13:16.360Z,3688.00
2018-09-18T09:18:16.316Z,4252.00
2018-09-18T09:19:16.219Z,4316.00
2018-09-18T09:20:16.364Z,4360.00
2018-09-18T09:21:16.246Z,4676.00
2018-09-18T09:22:16.589Z,4172.00
2018-09-18T09:23:16.252Z,4216.00
2018-09-18T09:25:16.383Z,4100.00
2018-09-18T09:26:16.297Z,4580.00
2018-09-18T09:27:16.186Z,7788.00
2018-09-18T09:28:16.472Z,5528.00
2018-09-18T09:29:16.171Z,5728.00
2018-09-18T09:30:16.237Z,7544.00
2018-09-18T09:31:16.130Z,6840.00
2018-09-18T09:32:16.230Z,6456.00
2018-09-18T09:36:16.130Z,9664.00
2018-09-18T09:37:16.204Z,10976.00
2018-09-18T09:38:16.168Z,11892.00
2018-09-18T09:39:16.661Z,0.00
2018-09-18T09:40:16.907Z,12512.00
2018-09-18T09:41:16.055Z,14912.00
2018-09-18T09:42:16.249Z,15680.00
2018-09-18T09:43:16.276Z,16576.00
2018-09-18T09:45:16.286Z,20704.00
2018-09-18T09:47:16.617Z,21696.00
2018-09-18T09:48:16.012Z,12608.00
2018-09-18T09:49:16.072Z,21152.00
2018-09-18T09:50:16.323Z,21088.00
2018-09-18T09:51:16.110Z,21344.00
2018-09-18T09:54:16.273Z,20704.00
2018-09-18T09:55:15.979Z,20992.00
2018-09-18T09:57:15.958Z,22176.00
2018-09-18T09:58:16.051Z,11840.00
2018-09-18T09:59:15.994Z,23456.00
2018-09-18T10:00:16.264Z,18720.00
2018-09-18T10:02:16.017Z,20128.00
2018-09-18T10:03:15.940Z,5012.00
2018-09-18T10:04:15.930Z,9992.00
2018-09-18T10:06:16.251Z,9292.00
2018-09-18T10:08:15.916Z,10232.00
2018-09-18T10:09:15.931Z,10384.00
2018-09-18T10:10:15.947Z,10888.00
2018-09-18T10:12:16.320Z,11916.00
2018-09-18T10:13:15.885Z,17728.00
2018-09-18T10:16:15.888Z,10936.00
2018-09-18T10:17:15.844Z,9240.00
2018-09-18T10:18:16.207Z,13632.00
2018-09-18T10:19:15.967Z,27296.00
2018-09-18T10:20:15.964Z,25536.00
2018-09-18T10:21:16.161Z,10404.00
2018-09-18T10:23:15.843Z,10384.00
2018-09-18T10:25:15.946Z,0.00
2018-09-18T10:27:15.833Z,18304.00
2018-09-18T10:28:15.811Z,29696.00
2018-09-18T10:29:15.790Z,13728.00
2018-09-18T10:30:16.081Z,17664.00
2018-09-18T10:31:15.837Z,14016.00
2018-09-18T10:32:15.837Z,12856.00
2018-09-18T10:34:15.836Z,16704.00
2018-09-18T10:35:15.839Z,18720.00
2018-09-18T10:37:15.867Z,15392.00
2018-09-18T10:39:15.946Z,16224.00
2018-09-18T10:40:15.937Z,16480.00
2018-09-18T10:41:16.136Z,14560.00
2018-09-18T10:43:15.877Z,18080.00
2018-09-18T10:45:15.874Z,10944.00
2018-09-18T10:46:15.864Z,17696.00
2018-09-18T10:47:15.850Z,17472.00
2018-09-18T10:48:16.193Z,16608.00
2018-09-18T10:49:15.866Z,17152.00
2018-09-18T10:50:15.832Z,16992.00
2018-09-18T10:51:15.852Z,17056.00
2018-09-18T10:52:15.969Z,17632.00
2018-09-18T10:53:15.811Z,18624.00
2018-09-18T10:54:16.890Z,25120.00
2018-09-18T10:55:15.853Z,41792.00
2018-09-18T10:56:15.869Z,48448.00
2018-09-18T10:58:15.769Z,38560.00
2018-09-18T10:59:15.807Z,34752.00
2018-09-18T11:00:16.081Z,31904.00
2018-09-18T11:01:15.823Z,30048.00
2018-09-18T11:02:15.989Z,29376.00
2018-09-18T11:03:15.908Z,30944.00
2018-09-18T11:04:15.842Z,28288.00
2018-09-18T11:05:15.829Z,25696.00
2018-09-18T11:06:16.132Z,26880.00
2018-09-18T11:07:15.898Z,27968.00
2018-09-18T11:08:16.046Z,29504.00
2018-09-18T11:09:15.971Z,30400.00
2018-09-18T11:10:17.076Z,27264.00
2018-09-18T11:11:15.853Z,28768.00
2018-09-18T11:13:16.142Z,38592.00
2018-09-18T11:14:15.822Z,39200.00
2018-09-18T11:15:15.905Z,38592.00
2018-09-18T11:16:15.885Z,37120.00
2018-09-18T11:17:15.816Z,56928.00
2018-09-18T11:18:15.913Z,44384.00
2018-09-18T11:19:16.209Z,46496.00
2018-09-18T11:20:15.833Z,47136.00
2018-09-18T11:21:15.978Z,47136.00
2018-09-18T11:22:15.984Z,47264.00
2018-09-18T11:23:15.777Z,47808.00
2018-09-18T11:24:15.832Z,46272.00
2018-09-18T11:25:16.076Z,46304.00
2018-09-18T11:26:15.913Z,48576.00
2018-09-18T11:27:15.810Z,47904.00
2018-09-18T11:28:15.772Z,48320.00
2018-09-18T11:29:16.081Z,49600.00
2018-09-18T11:30:15.787Z,49024.00
2018-09-18T11:31:16.149Z,49120.00
2018-09-18T11:32:15.812Z,50304.00
2018-09-18T11:33:16.169Z,50432.00
2018-09-18T11:34:15.792Z,50752.00
2018-09-18T11:36:15.834Z,46880.00
2018-09-18T11:37:16.137Z,45248.00
2018-09-18T11:38:15.819Z,48288.00
2018-09-18T11:39:16.234Z,48064.00
2018-09-18T11:40:15.780Z,45536.00
2018-09-18T11:41:15.764Z,47136.00
2018-09-18T11:42:15.831Z,47776.00
2018-09-18T11:43:16.145Z,48448.00
2018-09-18T11:44:15.840Z,48640.00
2018-09-18T11:45:15.817Z,48832.00
2018-09-18T11:46:15.819Z,45184.00
2018-09-18T11:47:15.761Z,44192.00
2018-09-18T11:48:15.818Z,46944.00
2018-09-18T11:49:16.117Z,46400.00
2018-09-18T11:51:15.982Z,50336.00
2018-09-18T11:52:15.801Z,51456.00
2018-09-18T11:53:15.790Z,52736.00
2018-09-18T11:54:15.777Z,52448.00
2018-09-18T11:57:15.930Z,52160.00
2018-09-18T11:58:15.846Z,52128.00
2018-09-18T11:59:15.894Z,53792.00
2018-09-18T12:00:15.771Z,52672.00
2018-09-18T12:01:16.708Z,49344.00
2018-09-18T12:02:15.948Z,51328.00
2018-09-18T12:03:16.036Z,51936.00
2018-09-18T12:04:15.887Z,51360.00
2018-09-18T12:05:15.940Z,50592.00
2018-09-18T12:06:15.804Z,49376.00
2018-09-18T12:07:16.168Z,49696.00
2018-09-18T12:08:15.831Z,51392.00
2018-09-18T12:09:16.018Z,50848.00
2018-09-18T12:10:15.830Z,49120.00
2018-09-18T12:11:15.925Z,49792.00
2018-09-18T12:12:15.934Z,53728.00
2018-09-18T12:13:16.092Z,52192.00
2018-09-18T12:15:15.933Z,52832.00
2018-09-18T12:16:15.813Z,54592.00
2018-09-18T12:17:15.842Z,54144.00
2018-09-18T12:18:15.840Z,53920.00
2018-09-18T12:19:16.047Z,53824.00
2018-09-18T12:20:15.998Z,51584.00
2018-09-18T12:21:15.841Z,48896.00
2018-09-18T12:22:15.869Z,48288.00
2018-09-18T12:23:15.849Z,47936.00
2018-09-18T12:25:15.841Z,47008.00
2018-09-18T12:26:15.785Z,46688.00
2018-09-18T12:27:15.953Z,45632.00
2018-09-18T12:28:15.839Z,45184.00
2018-09-18T12:30:16.191Z,43904.00
2018-09-18T12:31:16.187Z,44192.00
2018-09-18T12:32:15.840Z,43712.00
2018-09-18T12:33:15.864Z,46464.00
2018-09-18T12:34:15.789Z,47328.00
2018-09-18T12:35:15.882Z,46880.00
2018-09-18T12:36:15.790Z,45888.00
2018-09-18T12:37:16.147Z,44224.00
2018-09-18T12:38:15.864Z,43200.00
2018-09-18T12:39:15.947Z,45248.00
2018-09-18T12:40:15.959Z,42976.00
2018-09-18T12:41:15.798Z,40960.00
2018-09-18T12:42:16.006Z,38336.00
2018-09-18T12:43:16.147Z,38464.00
2018-09-18T12:44:15.815Z,41024.00
2018-09-18T12:45:15.850Z,41696.00
2018-09-18T12:46:16.127Z,41728.00
2018-09-18T12:47:15.912Z,41920.00
2018-09-18T12:48:15.795Z,39520.00
2018-09-18T12:49:16.205Z,38752.00
2018-09-18T12:50:15.964Z,39328.00
2018-09-18T12:51:15.956Z,40960.00
2018-09-18T12:52:15.870Z,37632.00
2018-09-18T12:53:15.886Z,31456.00
2018-09-18T12:54:15.943Z,33824.00
2018-09-18T12:55:16.159Z,33952.00
2018-09-18T12:57:16.032Z,35360.00
2018-09-18T12:58:16.241Z,33120.00
2018-09-18T12:59:15.815Z,9656.00
2018-09-18T13:00:15.904Z,32544.00
2018-09-18T13:01:16.257Z,32128.00
2018-09-18T13:02:15.861Z,33344.00
2018-09-18T13:03:15.883Z,34688.00
2018-09-18T13:04:15.818Z,33696.00
2018-09-18T13:05:15.801Z,32448.00
2018-09-18T13:06:15.966Z,30976.00
2018-09-18T13:07:16.224Z,29312.00
2018-09-18T13:08:15.982Z,26688.00
2018-09-18T13:09:15.872Z,25440.00
2018-09-18T13:10:15.819Z,24512.00
2018-09-18T13:11:15.857Z,26080.00
2018-09-18T13:12:15.849Z,30048.00
2018-09-18T13:13:16.443Z,31808.00
2018-09-18T13:14:15.985Z,31584.00
2018-09-18T13:15:16.186Z,30912.00
2018-09-18T13:16:15.918Z,31168.00
2018-09-18T13:17:15.895Z,30976.00
2018-09-18T13:18:15.886Z,30624.00
2018-09-18T13:19:16.280Z,29824.00
2018-09-18T13:21:16.189Z,30016.00
2018-09-18T13:22:15.852Z,28512.00
2018-09-18T13:23:15.878Z,29568.00
2018-09-18T13:24:15.793Z,29408.00
2018-09-18T13:25:16.166Z,30016.00
2018-09-18T13:26:15.808Z,29568.00
2018-09-18T13:27:15.891Z,29504.00
2018-09-18T13:28:16.096Z,27968.00
2018-09-18T13:29:15.915Z,26848.00
2018-09-18T13:30:15.899Z,26016.00
2018-09-18T13:31:16.124Z,26656.00
2018-09-18T13:32:15.844Z,25056.00
2018-09-18T13:33:15.957Z,22880.00
2018-09-18T13:34:15.889Z,19168.00
2018-09-18T13:35:16.092Z,23520.00
2018-09-18T13:36:16.602Z,23776.00
2018-09-18T13:37:16.141Z,22304.00
2018-09-18T13:38:15.906Z,21280.00
2018-09-18T13:39:16.049Z,23392.00
2018-09-18T13:40:16.810Z,5280.00
2018-09-18T13:41:15.869Z,24224.00
2018-09-18T13:42:15.806Z,21152.00
2018-09-18T13:43:16.298Z,16544.00
2018-09-18T13:44:15.798Z,10568.00
2018-09-18T13:45:15.895Z,9848.00
2018-09-18T13:46:16.035Z,9684.00
2018-09-18T13:47:15.898Z,9080.00
2018-09-18T13:48:15.913Z,9008.00